Terminal Aerodrome Forecast
Issued by NWS

Home | Current Version | Previous Version | Text Only | Print | Product List | Glossary On
Versions: 1 2 3 4 5 6 7 8 9 10 11 12 13 14 15 16 17 18 19 20 21 22 23 24 25 26 27
000
FTUS43 KDLH 070633 AAA
TAFHIB
TAF AMD
KHIB 070633Z 0707/0806 24011G18KT 1 1/2SM -SN BR BKN015 OVC023
      TEMPO 0707/0710 3SM -SN BR OVC017
     FM071000 26010G20KT 2SM -SN BLSN OVC010
     FM071500 27014G24KT 3SM -SN BLSN OVC010
     FM072200 29012KT P6SM -SN OVC015=

USA.gov is the U.S. government's official web portal to all federal, state and local government web resources and services.